Time;durP1;ratioP1;P1;durP2;ratioP2;P2;SDS_P1;SDS_P2;PMS_P1;PMS_P2;Temp;Humidity;BMP_temperature;BMP_pressure;BME280_temperature;BME280_humidity;BME280_pressure;Samples;Min_cycle;Max_cycle;Signal;HPM_P1;HPM_P2
2022/07/22 00:02:04;;;;;;;7.30;5.65;;;;;;;17.83;100.00;98848.51;2162014;82;20961;-87
2022/07/22 00:05:04;;;;;;;7.62;5.55;;;;;;;17.83;100.00;98847.67;2156013;82;21100;-87
2022/07/22 00:08:05;;;;;;;7.70;5.37;;;;;;;17.81;100.00;98848.41;2159917;82;21009;-86
2022/07/22 00:11:06;;;;;;;6.75;5.00;;;;;;;17.76;100.00;98846.45;2158165;82;21545;-86
2022/07/22 00:14:06;;;;;;;8.58;5.53;;;;;;;17.73;100.00;98846.88;2163076;82;21013;-87
2022/07/22 00:17:07;;;;;;;7.53;6.33;;;;;;;17.72;100.00;98854.53;2159841;82;21501;-87
2022/07/22 00:20:08;;;;;;;5.87;5.40;;;;;;;17.74;100.00;98860.44;2162770;82;21497;-85
2022/07/22 00:23:08;;;;;;;9.40;5.67;;;;;;;17.77;100.00;98857.85;2158442;82;21040;-84
2022/07/22 00:26:09;;;;;;;9.35;5.95;;;;;;;17.80;100.00;98871.44;2157538;82;21434;-87
2022/07/22 00:29:10;;;;;;;5.33;4.83;;;;;;;17.84;100.00;98877.94;2160352;82;21022;-86
2022/07/22 00:32:10;;;;;;;5.62;5.08;;;;;;;17.86;100.00;98874.54;2167174;82;21028;-85
2022/07/22 00:35:11;;;;;;;5.87;5.22;;;;;;;17.86;100.00;98875.86;2159334;82;21046;-85
2022/07/22 00:38:12;;;;;;;6.62;4.70;;;;;;;17.85;100.00;98871.59;2160541;82;20990;-86
2022/07/22 00:41:13;;;;;;;5.30;4.80;;;;;;;17.83;100.00;98874.16;2156869;82;21560;-88
2022/07/22 00:44:13;;;;;;;7.67;4.60;;;;;;;17.80;100.00;98869.31;2156590;82;21001;-87
2022/07/22 00:47:14;;;;;;;9.50;6.08;;;;;;;17.74;100.00;98871.03;2155850;82;21057;-86
2022/07/22 00:50:15;;;;;;;8.38;4.60;;;;;;;17.71;100.00;98872.77;2160661;82;21009;-86
2022/07/22 00:53:16;;;;;;;9.48;5.37;;;;;;;17.70;100.00;98875.13;2158959;82;21006;-80
2022/07/22 00:56:17;;;;;;;7.42;5.53;;;;;;;17.67;100.00;98872.09;2162685;82;20997;-87
2022/07/22 00:59:18;;;;;;;7.90;5.10;;;;;;;17.62;100.00;98867.45;2159475;82;21529;-87
2022/07/22 01:02:19;;;;;;;5.20;4.70;;;;;;;17.58;100.00;98868.94;2160955;82;21570;-86
2022/07/22 01:05:20;;;;;;;6.55;5.60;;;;;;;17.52;100.00;98864.00;2158663;82;21072;-87
2022/07/22 01:08:21;;;;;;;7.85;6.92;;;;;;;17.47;100.00;98859.89;2158767;82;21005;-85
2022/07/22 01:11:22;;;;;;;6.53;4.62;;;;;;;17.44;100.00;98853.70;2162118;82;21041;-85
2022/07/22 01:14:22;;;;;;;7.25;6.12;;;;;;;17.43;100.00;98849.95;2160799;82;21053;-86
2022/07/22 01:17:23;;;;;;;6.10;5.55;;;;;;;17.38;100.00;98849.30;2160250;82;21016;-87
2022/07/22 01:20:25;;;;;;;6.53;5.92;;;;;;;17.32;100.00;98847.02;2161292;82;21469;-85
2022/07/22 01:23:26;;;;;;;6.78;5.05;;;;;;;17.28;100.00;98845.84;2160842;82;20994;-84
2022/07/22 01:26:27;;;;;;;6.72;5.50;;;;;;;17.25;100.00;98851.55;2159304;82;21066;-83
2022/07/22 01:29:28;;;;;;;7.30;5.75;;;;;;;17.23;100.00;98850.97;2159403;82;20986;-84
2022/07/22 01:32:28;;;;;;;7.28;5.62;;;;;;;17.21;100.00;98853.03;2154652;82;21540;-85
2022/07/22 01:35:29;;;;;;;6.22;5.58;;;;;;;17.21;100.00;98853.03;2161054;82;21167;-85
2022/07/22 01:38:30;;;;;;;7.65;6.55;;;;;;;17.23;100.00;98854.12;2162832;82;21036;-85
2022/07/22 01:41:31;;;;;;;9.03;6.28;;;;;;;17.25;100.00;98850.75;2159126;82;21541;-81
2022/07/22 01:44:32;;;;;;;8.15;5.95;;;;;;;17.28;100.00;98855.11;2166064;82;21006;-82
2022/07/22 01:47:32;;;;;;;7.75;6.42;;;;;;;17.30;100.00;98857.53;2161661;82;21040;-85
2022/07/22 01:50:33;;;;;;;13.43;7.37;;;;;;;17.28;100.00;98857.75;2161789;82;21060;-85
2022/07/22 01:53:34;;;;;;;11.08;6.80;;;;;;;17.25;100.00;98854.72;2159622;82;21497;-85
2022/07/22 01:56:34;;;;;;;9.85;7.95;;;;;;;17.23;100.00;98856.78;2159020;82;21025;-86
2022/07/22 01:59:35;;;;;;;8.55;6.80;;;;;;;17.18;100.00;98847.34;2156712;82;21076;-87
2022/07/22 02:02:36;;;;;;;19.05;7.58;;;;;;;17.11;100.00;98846.11;2156314;82;21001;-87
2022/07/22 02:05:36;;;;;;;12.10;7.40;;;;;;;16.98;100.00;98849.67;2160867;82;21548;-85
2022/07/22 02:08:37;;;;;;;10.90;7.20;;;;;;;16.92;100.00;98844.46;2159309;82;21494;-81
2022/07/22 02:11:38;;;;;;;9.85;6.75;;;;;;;16.92;100.00;98851.08;2160042;82;20975;-86
2022/07/22 02:14:39;;;;;;;6.70;5.97;;;;;;;16.92;100.00;98856.36;2162183;82;21037;-84
2022/07/22 02:17:39;;;;;;;7.55;6.83;;;;;;;16.92;100.00;98862.46;2157442;82;21001;-84
2022/07/22 02:20:40;;;;;;;12.53;7.90;;;;;;;16.94;100.00;98867.53;2160781;82;21061;-84
2022/07/22 02:23:41;;;;;;;10.72;7.05;;;;;;;16.91;100.00;98863.98;2158409;82;21560;-83
2022/07/22 02:26:41;;;;;;;11.20;8.08;;;;;;;16.90;100.00;98868.97;2157190;82;21498;-84
2022/07/22 02:29:42;;;;;;;11.93;8.15;;;;;;;16.85;100.00;98867.50;2159971;82;21077;-84
2022/07/22 02:32:43;;;;;;;7.35;6.40;;;;;;;16.82;100.00;98873.20;2160700;82;20997;-84
2022/07/22 02:35:43;;;;;;;8.33;6.50;;;;;;;16.84;100.00;98883.08;2160994;82;20989;-84
2022/07/22 02:38:44;;;;;;;9.60;6.28;;;;;;;16.88;100.00;98886.89;2165054;82;21061;-85
2022/07/22 02:41:45;;;;;;;6.87;6.10;;;;;;;16.82;100.00;98881.13;2160665;82;21105;-84
2022/07/22 02:44:46;;;;;;;9.48;6.37;;;;;;;16.76;100.00;98893.41;2158245;82;21018;-85
2022/07/22 02:47:47;;;;;;;9.50;6.30;;;;;;;16.73;100.00;98885.39;2160832;82;21084;-84
2022/07/22 02:50:47;;;;;;;6.80;6.10;;;;;;;16.68;100.00;98874.64;2155621;82;21533;-84
2022/07/22 02:53:48;;;;;;;12.13;6.42;;;;;;;16.65;100.00;98886.94;2159659;82;21013;-84
2022/07/22 02:56:49;;;;;;;7.40;5.72;;;;;;;16.61;100.00;98888.37;2163992;82;21096;-84
2022/07/22 02:59:50;;;;;;;6.80;6.10;;;;;;;16.57;100.00;98877.14;2156438;82;21489;-84
2022/07/22 03:02:50;;;;;;;10.23;5.92;;;;;;;16.54;100.00;98888.92;2161522;82;21005;-85
2022/07/22 03:05:51;;;;;;;7.55;6.67;;;;;;;16.46;100.00;98890.53;2158304;82;21025;-84
2022/07/22 03:08:52;;;;;;;7.62;5.60;;;;;;;16.33;100.00;98890.08;2158344;82;21029;-85
2022/07/22 03:11:53;;;;;;;9.45;5.50;;;;;;;16.39;100.00;98890.56;2161853;82;21133;-84
2022/07/22 03:14:54;;;;;;;9.00;6.22;;;;;;;16.43;100.00;98890.94;2154884;83;21029;-84
2022/07/22 03:17:55;;;;;;;10.58;6.67;;;;;;;16.47;100.00;98890.83;2161685;82;21053;-84
2022/07/22 03:20:56;;;;;;;8.03;6.10;;;;;;;16.50;100.00;98889.06;2163550;82;21044;-80
2022/07/22 03:23:57;;;;;;;6.80;6.12;;;;;;;16.59;100.00;98896.23;2166624;82;21049;-82
2022/07/22 03:26:57;;;;;;;7.33;5.53;;;;;;;16.75;100.00;98895.23;2162807;82;21108;-85
2022/07/22 03:29:58;;;;;;;7.85;5.03;;;;;;;16.90;100.00;98891.45;2162963;82;21032;-85
2022/07/22 03:32:59;;;;;;;6.70;5.67;;;;;;;17.06;100.00;98887.75;2166255;82;20982;-84
2022/07/22 03:35:59;;;;;;;7.45;5.30;;;;;;;17.22;100.00;98883.75;2157981;82;20989;-85
2022/07/22 03:39:00;;;;;;;5.35;4.80;;;;;;;17.36;100.00;98887.06;2164820;82;21032;-83
2022/07/22 03:42:01;;;;;;;8.58;6.15;;;;;;;17.51;100.00;98890.69;2163236;82;21034;-82
2022/07/22 03:45:02;;;;;;;6.60;5.47;;;;;;;17.76;100.00;98878.23;2158560;82;21558;-82
2022/07/22 03:48:02;;;;;;;9.40;5.95;;;;;;;18.12;100.00;98869.42;2161851;82;21075;-86
2022/07/22 03:51:03;;;;;;;6.20;5.47;;;;;;;18.46;100.00;98877.70;2163366;82;21009;-85
2022/07/22 03:54:04;;;;;;;9.03;5.90;;;;;;;18.77;100.00;98879.32;2156913;82;21022;-85
2022/07/22 03:57:04;;;;;;;9.93;5.83;;;;;;;19.05;100.00;98878.66;2161846;82;21599;-86
2022/07/22 04:00:06;;;;;;;7.58;5.47;;;;;;;19.33;100.00;98873.98;2157037;82;20997;-85
2022/07/22 04:03:06;;;;;;;7.42;5.33;;;;;;;19.62;100.00;98874.89;2155808;82;21102;-86
2022/07/22 04:06:07;;;;;;;11.43;5.90;;;;;;;19.93;100.00;98874.97;2157779;82;21069;-85
2022/07/22 04:09:08;;;;;;;6.75;4.92;;;;;;;20.22;100.00;98876.34;2163242;82;21489;-83
2022/07/22 04:12:09;;;;;;;6.30;5.42;;;;;;;20.74;100.00;98880.98;2158283;82;21031;-85
2022/07/22 04:15:09;;;;;;;7.60;5.62;;;;;;;21.23;100.00;98875.91;2160518;82;21025;-86
2022/07/22 04:18:10;;;;;;;7.08;5.15;;;;;;;21.84;100.00;98877.52;2159715;82;21013;-85
2022/07/22 04:21:11;;;;;;;7.65;5.08;;;;;;;22.45;100.00;98880.08;2158116;82;21096;-83
2022/07/22 04:24:11;;;;;;;6.70;5.92;;;;;;;23.10;100.00;98879.56;2159609;82;21010;-84
2022/07/22 04:27:12;;;;;;;6.03;5.42;;;;;;;23.73;99.71;98880.48;2155638;82;21088;-84
2022/07/22 04:30:13;;;;;;;7.30;5.20;;;;;;;24.31;93.79;98888.70;2162898;82;21072;-85
2022/07/22 04:33:14;;;;;;;7.40;4.75;;;;;;;24.86;84.75;98887.69;2161195;82;21009;-79
2022/07/22 04:36:15;;;;;;;6.67;4.60;;;;;;;25.26;81.87;98892.78;2159832;82;21049;-81
2022/07/22 04:39:15;;;;;;;5.30;4.65;;;;;;;25.82;76.09;98898.81;2162752;82;20997;-83
2022/07/22 04:42:16;;;;;;;4.85;4.55;;;;;;;26.29;74.44;98894.82;2166645;82;21046;-81
2022/07/22 04:45:17;;;;;;;8.25;4.95;;;;;;;26.91;72.02;98890.64;2166634;82;21080;-84
2022/07/22 04:48:18;;;;;;;5.08;4.40;;;;;;;27.49;68.63;98896.81;2163641;82;20957;-85
2022/07/22 04:51:18;;;;;;;6.72;4.25;;;;;;;28.03;64.93;98901.59;2164762;82;21036;-86
2022/07/22 04:54:19;;;;;;;4.30;3.92;;;;;;;28.21;62.29;98897.31;2160765;82;21068;-85
2022/07/22 04:57:20;;;;;;;27.00;6.50;;;;;;;28.56;59.08;98907.59;2159624;82;21470;-85
2022/07/22 05:00:21;;;;;;;10.28;4.62;;;;;;;29.06;59.09;98908.44;2162751;82;20997;-84
2022/07/22 05:03:24;;;;;;;8.95;4.15;;;;;;;29.55;57.59;98911.10;2158975;82;21065;-85
2022/07/22 05:06:24;;;;;;;4.28;3.87;;;;;;;29.90;55.04;98906.87;2162005;82;21113;-87
2022/07/22 05:09:25;;;;;;;4.50;3.95;;;;;;;30.26;53.58;98906.38;2164911;82;21047;-85
2022/07/22 05:12:26;;;;;;;4.55;3.47;;;;;;;30.45;50.94;98929.21;2161252;82;21521;-85
2022/07/22 05:15:26;;;;;;;5.25;3.72;;;;;;;30.19;49.47;98924.13;2160589;82;21025;-84
2022/07/22 05:18:27;;;;;;;4.83;4.33;;;;;;;29.96;47.80;98919.16;2160869;82;21569;-87
2022/07/22 05:21:28;;;;;;;4.83;4.40;;;;;;;29.78;47.97;98906.59;2164780;82;21545;-87
2022/07/22 05:24:29;;;;;;;5.97;4.90;;;;;;;29.80;47.32;98902.48;2137455;82;21054;-86
2022/07/22 05:27:30;;;;;;;5.45;4.60;;;;;;;29.70;46.74;98914.83;2159915;82;20974;-85
2022/07/22 05:30:31;;;;;;;6.03;4.85;;;;;;;29.67;46.96;98904.09;2164898;82;21132;-85
2022/07/22 05:33:32;;;;;;;4.80;4.35;;;;;;;29.77;46.90;98909.84;2164765;82;21006;-87
2022/07/22 05:36:32;;;;;;;6.22;5.62;;;;;;;29.66;46.02;98920.04;2159930;82;21022;-86
2022/07/22 05:39:33;;;;;;;6.75;5.85;;;;;;;29.47;45.64;98909.86;2159670;82;21520;-85
2022/07/22 05:42:34;;;;;;;6.45;5.85;;;;;;;29.37;46.00;98906.01;2156724;82;21011;-87
2022/07/22 05:45:35;;;;;;;8.55;5.55;;;;;;;29.23;45.37;98902.48;2158468;82;21013;-85
2022/07/22 05:48:35;;;;;;;7.83;6.33;;;;;;;28.98;45.03;98913.95;2165094;82;21002;-86
2022/07/22 05:51:36;;;;;;;6.70;6.03;;;;;;;28.80;45.65;98905.33;2159824;82;21069;-86
2022/07/22 05:54:37;;;;;;;9.33;6.65;;;;;;;28.80;45.58;98902.63;2161060;82;21065;-87
2022/07/22 05:57:38;;;;;;;6.50;5.85;;;;;;;28.91;45.21;98901.98;2160302;82;21001;-88
2022/07/22 06:00:39;;;;;;;7.12;6.47;;;;;;;28.87;45.42;98897.13;2162990;82;21045;-85
2022/07/22 06:03:40;;;;;;;8.23;6.00;;;;;;;28.67;45.37;98896.66;2158672;82;21160;-85
2022/07/22 06:06:40;;;;;;;6.75;6.05;;;;;;;28.69;45.83;98903.34;2159750;82;21005;-86
2022/07/22 06:09:41;;;;;;;7.33;6.15;;;;;;;28.77;45.73;98899.19;2156158;82;21061;-87
2022/07/22 06:12:42;;;;;;;9.55;6.60;;;;;;;28.88;45.95;98906.00;2159932;82;21403;-85
2022/07/22 06:15:43;;;;;;;8.05;6.95;;;;;;;28.98;46.11;98903.17;2161616;82;21041;-83
2022/07/22 06:18:44;;;;;;;8.53;6.37;;;;;;;29.13;45.90;98915.59;2161657;82;20990;-84
2022/07/22 06:21:44;;;;;;;9.80;6.85;;;;;;;29.21;46.00;98917.61;2161858;82;21012;-83
2022/07/22 06:24:45;;;;;;;11.20;7.33;;;;;;;29.26;45.96;98924.80;2160408;82;21651;-86
2022/07/22 06:27:46;;;;;;;8.63;6.72;;;;;;;29.25;45.91;98924.55;2162852;82;20970;-89
2022/07/22 06:30:47;;;;;;;10.25;8.10;;;;;;;29.11;46.10;98933.97;2160324;82;21171;-88
2022/07/22 06:33:47;;;;;;;9.80;7.35;;;;;;;28.88;46.42;98936.99;2161522;82;20997;-87
2022/07/22 06:36:48;;;;;;;8.90;7.22;;;;;;;28.69;46.96;98937.02;2162147;82;21033;-87
2022/07/22 06:39:52;;;;;;;15.38;7.60;;;;;;;28.54;47.17;98935.38;2165946;82;21049;-85
2022/07/22 06:42:53;;;;;;;9.75;7.25;;;;;;;28.23;47.63;98934.16;2162216;82;21040;-85
2022/07/22 06:45:53;;;;;;;10.72;8.58;;;;;;;27.99;48.35;98935.55;2154304;82;20986;-87
2022/07/22 06:48:54;;;;;;;9.08;8.23;;;;;;;27.89;48.92;98935.14;2159813;82;21068;-83
2022/07/22 06:51:55;;;;;;;12.85;8.73;;;;;;;27.89;49.42;98934.30;2158300;82;21520;-85
2022/07/22 06:54:56;;;;;;;10.15;8.68;;;;;;;27.76;49.70;98928.55;2160603;82;21009;-85
2022/07/22 06:57:56;;;;;;;10.50;8.18;;;;;;;27.65;49.99;98928.92;2160749;82;21068;-83
2022/07/22 07:00:57;;;;;;;13.98;9.25;;;;;;;27.32;50.60;98930.05;2162152;82;20971;-84
2022/07/22 07:03:58;;;;;;;11.48;10.20;;;;;;;27.32;51.16;98919.84;2161298;82;21462;-83
2022/07/22 07:06:59;;;;;;;11.57;9.60;;;;;;;27.16;51.36;98911.15;2157245;82;21084;-87
2022/07/22 07:09:59;;;;;;;11.75;9.33;;;;;;;27.04;51.90;98906.67;2162711;82;21493;-85
2022/07/22 07:13:00;;;;;;;10.38;9.40;;;;;;;26.90;52.68;98896.56;2158781;82;21037;-85
2022/07/22 07:16:01;;;;;;;10.70;9.30;;;;;;;26.69;53.73;98907.73;2159480;82;21267;-84
2022/07/22 07:19:02;;;;;;;15.08;9.80;;;;;;;26.53;54.60;98909.74;2160907;82;21001;-85
2022/07/22 07:22:02;;;;;;;12.35;10.48;;;;;;;26.46;54.86;98899.84;2159485;82;21028;-86
2022/07/22 07:25:03;;;;;;;11.10;9.65;;;;;;;26.42;55.29;98906.84;2158880;82;21056;-85
2022/07/22 07:28:04;;;;;;;11.00;9.63;;;;;;;26.48;55.75;98903.05;2166187;82;21078;-86
2022/07/22 07:31:05;;;;;;;12.50;10.28;;;;;;;26.54;55.95;98908.11;2162433;82;21055;-84
2022/07/22 07:34:06;;;;;;;13.75;10.20;;;;;;;26.52;55.87;98904.91;2160223;82;21042;-86
2022/07/22 07:37:06;;;;;;;17.52;10.55;;;;;;;26.61;56.38;98905.13;2161359;82;21029;-86
2022/07/22 07:40:07;;;;;;;13.93;10.23;;;;;;;26.72;56.44;98903.96;2157679;82;21044;-86
2022/07/22 07:43:08;;;;;;;12.03;10.13;;;;;;;26.83;56.65;98902.80;2157996;82;21054;-84
2022/07/22 07:46:08;;;;;;;12.85;10.50;;;;;;;26.93;56.64;98897.88;2155559;82;21530;-84
2022/07/22 07:49:09;;;;;;;12.55;11.20;;;;;;;26.91;56.95;98899.50;2159970;82;21072;-85
2022/07/22 07:52:12;;;;;;;13.88;10.43;;;;;;;26.95;57.01;98891.67;2161369;82;21033;-85
2022/07/22 07:55:12;;;;;;;11.65;10.45;;;;;;;27.10;57.35;98887.55;2167089;82;21107;-84
2022/07/22 07:58:13;;;;;;;14.68;9.83;;;;;;;27.11;57.06;98896.41;2159063;82;21084;-85
2022/07/22 08:01:14;;;;;;;12.90;11.18;;;;;;;27.22;57.27;98900.59;2161191;80;21005;-84
2022/07/22 08:04:15;;;;;;;13.03;10.00;;;;;;;27.31;57.11;98901.58;2172953;80;21092;-85
2022/07/22 08:07:16;;;;;;;8.25;7.40;;;;;;;27.32;57.27;98884.91;2154962;82;20978;-86
2022/07/22 08:10:17;;;;;;;11.78;10.53;;;;;;;27.35;56.48;98887.84;2158176;82;21005;-85
2022/07/22 08:13:17;;;;;;;12.15;10.98;;;;;;;27.34;56.30;98885.41;2155054;82;21057;-85
2022/07/22 08:16:18;;;;;;;15.45;11.70;;;;;;;27.33;56.16;98898.05;2144754;82;21109;-83
2022/07/22 08:19:19;;;;;;;11.55;10.35;;;;;;;27.42;56.20;98908.98;2149911;82;21053;-83
2022/07/22 08:22:19;;;;;;;14.35;10.80;;;;;;;27.58;55.74;98907.74;2152948;82;21059;-82
2022/07/22 08:25:20;;;;;;;12.63;10.85;;;;;;;27.77;55.99;98899.20;2149931;82;21615;-83
2022/07/22 08:28:21;;;;;;;12.30;11.05;;;;;;;28.04;54.91;98904.53;2148926;82;21097;-83
2022/07/22 08:31:22;;;;;;;11.60;10.25;;;;;;;28.16;54.41;98900.06;2156505;82;21009;-87
2022/07/22 08:34:22;;;;;;;13.05;10.40;;;;;;;28.25;53.77;98907.19;2154384;82;21564;-84
2022/07/22 08:37:23;;;;;;;11.55;10.43;;;;;;;28.35;53.92;98907.66;2154687;82;21073;-84
2022/07/22 08:40:24;;;;;;;11.65;10.68;;;;;;;28.50;53.64;98910.65;2142831;82;21003;-89
2022/07/22 08:43:27;;;;;;;11.88;10.88;;;;;;;28.54;52.33;98903.61;2149083;82;21104;-85
2022/07/22 08:46:28;;;;;;;12.82;11.53;;;;;;;28.53;51.85;98901.46;2153372;82;21096;-81
2022/07/22 08:49:29;;;;;;;14.10;11.83;;;;;;;28.58;52.16;98899.22;2151835;82;21619;-79
2022/07/22 08:52:30;;;;;;;14.58;11.63;;;;;;;28.78;51.49;98911.56;2149638;82;21024;-83
2022/07/22 08:55:31;;;;;;;12.82;10.32;;;;;;;28.99;51.15;98921.52;2152050;82;21072;-81
2022/07/22 08:58:32;;;;;;;10.93;9.85;;;;;;;29.13;49.92;98923.69;2145740;82;21031;-82
2022/07/22 09:01:32;;;;;;;12.20;10.18;;;;;;;29.28;49.51;98916.69;2170531;82;21738;-80
2022/07/22 09:04:33;;;;;;;12.70;11.38;;;;;;;29.45;49.94;98918.26;2152201;82;21076;-80
2022/07/22 09:07:34;;;;;;;10.60;9.45;;;;;;;29.75;49.28;98922.84;2157521;82;21021;-82
2022/07/22 09:10:35;;;;;;;10.95;9.93;;;;;;;29.88;47.83;98917.17;2151211;82;21600;-81
2022/07/22 09:13:36;;;;;;;12.10;10.10;;;;;;;29.97;47.26;98918.86;2144923;82;21080;-82
2022/07/22 09:16:37;;;;;;;10.78;9.70;;;;;;;30.09;46.90;98923.00;2153919;82;21072;-82
2022/07/22 09:19:37;;;;;;;10.40;9.40;;;;;;;30.14;47.04;98920.17;2148999;82;21006;-81
2022/07/22 09:22:38;;;;;;;10.75;9.70;;;;;;;30.28;46.50;98923.10;2148532;82;21006;-82
2022/07/22 09:25:39;;;;;;;11.33;10.10;;;;;;;30.37;46.22;98932.63;2156069;82;21034;-84
2022/07/22 09:28:40;;;;;;;10.03;9.03;;;;;;;30.38;46.82;98928.03;2159242;82;21006;-81
2022/07/22 09:31:40;;;;;;;10.82;9.83;;;;;;;30.35;45.63;98938.06;2148982;82;21048;-82
2022/07/22 09:34:41;;;;;;;10.50;9.25;;;;;;;30.23;46.12;98938.61;2142966;82;21484;-81
2022/07/22 09:37:42;;;;;;;10.48;9.60;;;;;;;30.32;45.79;98933.28;2146133;82;21100;-83
2022/07/22 09:40:43;;;;;;;10.75;9.30;;;;;;;30.46;46.16;98934.86;2150908;82;21049;-83
2022/07/22 09:43:43;;;;;;;11.78;9.15;;;;;;;30.62;45.65;98933.14;2154115;82;21560;-84
2022/07/22 09:46:44;;;;;;;9.20;8.38;;;;;;;30.69;45.09;98933.55;2153959;82;21333;-78
2022/07/22 09:49:45;;;;;;;9.95;8.98;;;;;;;30.66;44.26;98931.47;2143251;82;21135;-81
2022/07/22 09:52:46;;;;;;;9.88;9.08;;;;;;;30.57;43.66;98940.27;2157022;82;20994;-83
2022/07/22 09:55:46;;;;;;;10.13;9.28;;;;;;;30.47;44.49;98931.61;2146369;80;21599;-83
2022/07/22 09:58:47;;;;;;;9.85;8.88;;;;;;;30.44;44.69;98933.55;2146883;82;21022;-82
2022/07/22 10:01:48;;;;;;;10.45;9.55;;;;;;;30.49;45.32;98938.29;2156374;82;21029;-83
2022/07/22 10:04:49;;;;;;;10.15;9.03;;;;;;;30.54;44.79;98930.08;2148217;82;21576;-81
2022/07/22 10:07:50;;;;;;;10.38;9.13;;;;;;;30.50;45.13;98925.58;2143347;82;21024;-82
2022/07/22 10:10:50;;;;;;;10.63;9.63;;;;;;;30.51;45.10;98922.57;2153653;82;21073;-82
2022/07/22 10:13:51;;;;;;;11.00;9.88;;;;;;;30.45;44.91;98918.93;2144042;82;21081;-81
2022/07/22 10:16:52;;;;;;;10.75;9.80;;;;;;;30.39;45.24;98922.31;2148000;80;21017;-83
2022/07/22 10:19:53;;;;;;;10.20;9.23;;;;;;;30.34;45.78;98916.22;2149600;82;21593;-81
2022/07/22 10:22:53;;;;;;;10.25;9.35;;;;;;;30.19;46.04;98916.02;2149414;82;21007;-81
2022/07/22 10:25:54;;;;;;;11.08;9.83;;;;;;;30.19;46.04;98916.02;2160333;82;21089;-81
2022/07/22 10:28:55;;;;;;;11.65;10.08;;;;;;;30.22;46.05;98912.16;2159037;82;21037;-82
2022/07/22 10:31:56;;;;;;;9.78;8.88;;;;;;;30.26;45.56;98914.48;2147918;82;21486;-82
2022/07/22 10:34:57;;;;;;;9.70;8.75;;;;;;;30.23;44.30;98921.05;2149266;82;21017;-83
2022/07/22 10:37:57;;;;;;;9.83;8.83;;;;;;;30.28;44.73;98907.45;2153218;82;20994;-83
2022/07/22 10:40:58;;;;;;;9.73;8.93;;;;;;;30.29;44.96;98903.09;2154114;82;20997;-85
2022/07/22 10:43:59;;;;;;;10.50;9.40;;;;;;;30.33;45.09;98891.12;2159466;82;21121;-84
2022/07/22 10:47:02;;;;;;;9.70;8.70;;;;;;;30.34;44.96;98900.02;2151114;82;21030;-83
2022/07/22 10:50:03;;;;;;;11.70;8.75;;;;;;;30.30;44.71;98891.73;2148748;82;21053;-83
2022/07/22 10:53:03;;;;;;;10.38;8.78;;;;;;;30.25;43.90;98889.94;2147959;82;21092;-83
2022/07/22 10:56:04;;;;;;;10.60;9.70;;;;;;;30.23;44.34;98886.75;2148059;82;20976;-83
2022/07/22 10:59:05;;;;;;;10.30;9.30;;;;;;;30.38;45.66;98894.27;2158749;82;21537;-82
2022/07/22 11:02:06;;;;;;;9.50;8.63;;;;;;;30.49;45.67;98884.81;2148330;82;21105;-85
2022/07/22 11:05:07;;;;;;;9.15;8.25;;;;;;;30.61;44.29;98889.11;2155304;82;20998;-84
2022/07/22 11:08:08;;;;;;;10.03;8.85;;;;;;;30.67;44.49;98886.57;2139173;82;21585;-83
2022/07/22 11:11:08;;;;;;;10.40;8.50;;;;;;;30.74;44.50;98895.05;2147290;82;21067;-84
2022/07/22 11:14:09;;;;;;;8.73;7.90;;;;;;;30.82;43.10;98884.06;2165137;82;21497;-85
2022/07/22 11:17:10;;;;;;;8.83;7.95;;;;;;;30.90;42.99;98892.75;2149141;82;21014;-85
2022/07/22 11:20:11;;;;;;;9.33;8.10;;;;;;;30.93;42.47;98888.66;2152398;82;21044;-84
2022/07/22 11:23:12;;;;;;;9.33;8.53;;;;;;;30.92;41.15;98889.77;2161166;82;21481;-84
2022/07/22 11:26:12;;;;;;;13.08;7.75;;;;;;;30.91;41.94;98885.44;2148463;82;21426;-84
2022/07/22 11:29:13;;;;;;;7.75;7.12;;;;;;;30.92;41.47;98883.80;2148200;82;21085;-84
2022/07/22 11:32:14;;;;;;;7.75;7.15;;;;;;;30.93;40.60;98879.98;2164135;82;21033;-84
2022/07/22 11:35:15;;;;;;;7.33;6.80;;;;;;;30.95;40.37;98878.32;2148461;82;21088;-84
2022/07/22 11:38:16;;;;;;;8.43;7.67;;;;;;;30.97;40.23;98880.16;2143528;82;21536;-84
2022/07/22 11:41:18;;;;;;;8.23;7.47;;;;;;;30.99;40.93;98879.28;2155567;82;20988;-84
2022/07/22 11:44:19;;;;;;;7.75;7.00;;;;;;;31.00;41.23;98880.35;2147051;82;21020;-83
2022/07/22 11:47:20;;;;;;;8.90;8.13;;;;;;;30.99;41.85;98865.21;2149012;82;21141;-83
2022/07/22 11:50:24;;;;;;;7.75;7.25;;;;;;;31.03;41.62;98868.91;2157462;82;21098;-82
2022/07/22 11:53:24;;;;;;;8.63;7.83;;;;;;;31.15;41.93;98863.70;2142534;82;21476;-81
2022/07/22 11:56:25;;;;;;;9.78;7.95;;;;;;;31.25;41.62;98864.58;2160483;82;21433;-80
2022/07/22 11:59:26;;;;;;;8.35;7.67;;;;;;;31.35;41.81;98861.59;2142837;82;21006;-80
2022/07/22 12:02:27;;;;;;;8.15;7.45;;;;;;;31.48;41.49;98858.55;2154423;82;21088;-80
2022/07/22 12:05:30;;;;;;;9.00;8.20;;;;;;;31.61;41.68;98860.33;2145947;82;21466;-81
2022/07/22 12:08:31;;;;;;;8.05;7.25;;;;;;;31.71;42.41;98858.13;2153544;82;21092;-80
2022/07/22 12:11:32;;;;;;;7.50;7.00;;;;;;;31.80;41.35;98858.17;2158056;82;21032;-81
2022/07/22 12:14:33;;;;;;;14.33;7.78;;;;;;;31.94;41.06;98859.41;2145025;82;21044;-79
2022/07/22 12:17:33;;;;;;;8.70;7.55;;;;;;;32.11;41.08;98854.56;2143020;82;21493;-83
2022/07/22 12:20:34;;;;;;;6.67;6.17;;;;;;;32.32;41.26;98858.81;2137853;82;21040;-86
2022/07/22 12:23:35;;;;;;;8.25;7.55;;;;;;;32.54;40.12;98858.63;2147340;82;21525;-82
2022/07/22 12:26:36;;;;;;;7.97;6.30;;;;;;;32.59;40.45;98854.97;2154230;82;20994;-81
2022/07/22 12:29:37;;;;;;;6.67;6.20;;;;;;;32.68;39.56;98858.46;2148772;82;21077;-82
2022/07/22 12:32:38;;;;;;;6.20;5.70;;;;;;;32.78;39.89;98854.84;2153908;82;21033;-82
2022/07/22 12:35:38;;;;;;;7.00;6.40;;;;;;;32.84;38.13;98852.01;2164663;82;21112;-82
2022/07/22 12:38:39;;;;;;;7.67;6.35;;;;;;;32.78;39.05;98859.48;2147420;82;21022;-83
2022/07/22 12:41:40;;;;;;;7.97;6.22;;;;;;;32.66;38.50;98858.78;2149286;82;21013;-83
2022/07/22 12:44:41;;;;;;;7.50;6.80;;;;;;;32.58;37.74;98856.88;2147220;82;21113;-82
2022/07/22 12:47:44;;;;;;;7.12;6.62;;;;;;;32.47;38.34;98851.00;2154158;82;20995;-80
2022/07/22 12:50:45;;;;;;;7.83;6.72;;;;;;;32.45;38.53;98848.36;2149107;82;21095;-81
2022/07/22 12:53:46;;;;;;;6.78;6.25;;;;;;;32.40;38.01;98849.89;2165554;82;20966;-84
2022/07/22 12:56:47;;;;;;;6.25;5.83;;;;;;;32.37;38.57;98848.63;2159526;82;21615;-84
2022/07/22 12:59:48;;;;;;;6.55;6.00;;;;;;;32.41;38.31;98840.08;2148618;82;21070;-81
2022/07/22 13:02:48;;;;;;;16.10;9.23;;;;;;;32.55;38.52;98842.59;2139715;82;21044;-84
2022/07/22 13:05:49;;;;;;;12.28;10.95;;;;;;;32.75;38.61;98838.44;2154772;82;21061;-83
2022/07/22 13:08:50;;;;;;;16.85;15.05;;;;;;;32.90;38.27;98837.14;2159656;82;21120;-85
2022/07/22 13:11:51;;;;;;;10.93;9.88;;;;;;;32.97;37.52;98839.59;2150871;82;21060;-82
2022/07/22 13:14:52;;;;;;;33.60;29.98;;;;;;;33.03;37.08;98848.36;2164964;82;21004;-81
2022/07/22 13:17:53;;;;;;;24.20;21.77;;;;;;;33.04;37.67;98832.33;2153645;82;21040;-81
2022/07/22 13:20:54;;;;;;;19.55;15.75;;;;;;;33.13;37.51;98835.80;2151332;82;21018;-80
2022/07/22 13:23:56;;;;;;;13.10;11.73;;;;;;;33.22;37.73;98834.41;2149123;82;21523;-81
2022/07/22 13:26:57;;;;;;;13.15;12.03;;;;;;;33.27;37.52;98832.28;2155514;82;21093;-81
2022/07/22 13:29:57;;;;;;;11.85;10.70;;;;;;;33.31;37.75;98829.17;2146948;82;21025;-81
2022/07/22 13:32:58;;;;;;;14.75;13.40;;;;;;;33.31;37.67;98822.39;2152010;82;21066;-81
2022/07/22 13:35:59;;;;;;;9.38;8.48;;;;;;;33.38;37.54;98816.49;2150125;82;21524;-84
2022/07/22 13:39:00;;;;;;;11.97;10.98;;;;;;;33.40;37.29;98824.30;2153584;82;21052;-82
2022/07/22 13:42:00;;;;;;;10.58;9.10;;;;;;;33.35;37.58;98821.16;2143128;82;20981;-81
2022/07/22 13:45:03;;;;;;;7.28;6.75;;;;;;;33.28;37.38;98822.23;2153919;82;21528;-81
2022/07/22 13:48:03;;;;;;;6.90;6.40;;;;;;;33.26;37.05;98821.77;2153703;82;21105;-81
2022/07/22 13:51:04;;;;;;;9.65;8.75;;;;;;;33.22;36.79;98813.50;2153822;82;20966;-81
2022/07/22 13:54:05;;;;;;;8.18;7.35;;;;;;;33.19;37.39;98811.42;2159174;82;21668;-81
2022/07/22 13:57:06;;;;;;;7.37;6.87;;;;;;;33.18;36.73;98811.75;2149505;82;20998;-81
2022/07/22 14:00:08;;;;;;;7.90;7.20;;;;;;;33.16;36.91;98813.44;2144973;82;21556;-82
2022/07/22 14:03:08;;;;;;;7.92;7.28;;;;;;;33.18;36.88;98809.83;2152823;82;21403;-81